createdAt,value
2022-08-22T00:01:25.139Z,17.42
2022-08-22T00:02:45.271Z,13.25
2022-08-22T00:02:56.162Z,17.45
2022-08-22T00:03:00.668Z,14.52
2022-08-22T00:03:03.228Z,17.42
2022-08-22T00:03:04.985Z,18.55
2022-08-22T00:04:02.141Z,18.58
2022-08-22T00:06:48.769Z,15.68
2022-08-22T00:09:29.707Z,14.55
2022-08-22T00:12:15.053Z,16.98
2022-08-22T00:14:58.461Z,16.00
2022-08-22T00:17:36.599Z,15.50
2022-08-22T00:22:50.767Z,11.10
2022-08-22T00:25:55.536Z,17.98
2022-08-22T00:28:37.073Z,12.75
2022-08-22T00:31:21.819Z,14.73
2022-08-22T00:34:03.080Z,13.25
2022-08-22T00:36:43.873Z,14.45
2022-08-22T00:39:21.268Z,16.80
2022-08-22T00:42:32.097Z,19.48
2022-08-22T00:45:42.211Z,14.80
2022-08-22T00:48:41.786Z,14.82
2022-08-22T00:51:22.493Z,15.57
2022-08-22T00:53:56.951Z,19.65
2022-08-22T00:56:55.589Z,11.10
2022-08-22T00:59:28.915Z,13.85
2022-08-22T01:02:21.159Z,12.57
2022-08-22T01:05:29.999Z,16.45
2022-08-22T01:08:27.726Z,13.30
2022-08-22T01:11:22.772Z,13.65
2022-08-22T01:14:34.655Z,18.15
2022-08-22T01:17:26.925Z,16.40
2022-08-22T01:20:36.544Z,17.10
2022-08-22T01:23:15.897Z,19.25
2022-08-22T01:26:05.004Z,16.60
2022-08-22T01:28:50.792Z,18.63
2022-08-22T01:31:42.587Z,18.23
2022-08-22T01:34:36.484Z,15.25
2022-08-22T01:37:12.248Z,14.93
2022-08-22T01:40:10.204Z,17.58
2022-08-22T01:43:06.459Z,15.00
2022-08-22T01:45:36.712Z,18.77
2022-08-22T01:48:22.546Z,16.45
2022-08-22T01:51:02.196Z,18.05
2022-08-22T01:53:44.142Z,15.00
2022-08-22T01:56:23.234Z,12.23
2022-08-22T01:59:02.144Z,15.75
2022-08-22T02:01:41.408Z,12.05
2022-08-22T02:04:09.245Z,19.05
2022-08-22T02:07:08.628Z,16.08
2022-08-22T02:09:46.503Z,19.65
2022-08-22T02:12:35.348Z,14.80
2022-08-22T02:15:14.683Z,17.33
2022-08-22T02:18:12.287Z,16.38
2022-08-22T02:20:48.803Z,16.70
2022-08-22T02:23:35.218Z,13.10
2022-08-22T02:26:02.696Z,14.20
2022-08-22T02:29:01.035Z,15.68
2022-08-22T02:31:53.318Z,16.95
2022-08-22T02:34:36.821Z,17.88
2022-08-22T02:37:04.342Z,21.58
2022-08-22T02:40:04.264Z,17.30
2022-08-22T02:43:02.859Z,16.27
2022-08-22T02:45:52.534Z,13.93
2022-08-22T02:48:38.729Z,15.57
2022-08-22T02:51:11.690Z,18.30
2022-08-22T02:53:45.237Z,16.13
2022-08-22T02:56:35.713Z,12.82
2022-08-22T02:59:21.372Z,12.05
2022-08-22T03:01:49.711Z,15.65
2022-08-22T03:07:12.898Z,14.57
2022-08-22T03:10:01.790Z,14.30
2022-08-22T03:12:41.147Z,12.50
2022-08-22T03:15:17.535Z,14.65
2022-08-22T03:17:51.443Z,14.13
2022-08-22T03:20:42.907Z,10.68
2022-08-22T03:23:46.422Z,15.52
2022-08-22T03:26:22.598Z,16.08
2022-08-22T03:28:59.767Z,13.68
2022-08-22T03:31:30.428Z,16.17
2022-08-22T03:34:23.839Z,12.55
2022-08-22T03:36:59.951Z,12.18
2022-08-22T03:39:56.743Z,13.60
2022-08-22T03:42:39.386Z,15.32
2022-08-22T03:45:28.776Z,17.65
2022-08-22T03:47:56.343Z,17.17
2022-08-22T03:50:42.375Z,21.08
2022-08-22T03:53:18.845Z,18.05
2022-08-22T03:55:50.310Z,11.95
2022-08-22T03:58:29.617Z,12.18
2022-08-22T04:00:59.972Z,15.10
2022-08-22T04:03:41.539Z,17.40
2022-08-22T04:06:23.882Z,13.02
2022-08-22T04:08:58.259Z,14.57
2022-08-22T04:11:42.004Z,15.70
2022-08-22T04:14:25.310Z,18.65
2022-08-22T04:17:23.844Z,19.08
2022-08-22T04:20:20.872Z,18.75
2022-08-22T04:22:59.446Z,18.17
2022-08-22T04:25:59.560Z,16.67
2022-08-22T04:28:39.067Z,22.85
2022-08-22T04:31:10.639Z,13.40
2022-08-22T04:33:47.608Z,14.75
2022-08-22T04:36:37.956Z,23.20
2022-08-22T04:39:38.045Z,19.98
2022-08-22T04:42:36.682Z,17.35
2022-08-22T04:45:17.045Z,18.65
2022-08-22T04:48:03.511Z,20.83
2022-08-22T04:50:43.509Z,18.55
2022-08-22T04:53:31.549Z,22.48
2022-08-22T04:58:59.284Z,16.27
2022-08-22T05:01:39.059Z,18.65
2022-08-22T05:04:11.259Z,14.45
2022-08-22T05:06:43.559Z,19.98
2022-08-22T05:09:16.485Z,22.35
2022-08-22T05:11:46.950Z,13.98
2022-08-22T05:14:24.663Z,16.52
2022-08-22T05:16:54.289Z,14.00
2022-08-22T05:19:32.062Z,17.80
2022-08-22T05:22:01.396Z,22.27
2022-08-22T05:24:42.359Z,17.75
2022-08-22T05:27:17.134Z,26.17
2022-08-22T05:29:49.231Z,17.13
2022-08-22T05:32:27.844Z,17.75
2022-08-22T05:35:05.787Z,18.83
2022-08-22T05:37:33.363Z,18.65
2022-08-22T05:40:01.431Z,20.42
2022-08-22T05:42:33.606Z,20.05
2022-08-22T05:45:06.780Z,18.67
2022-08-22T05:47:48.063Z,21.75
2022-08-22T05:50:30.495Z,20.52
2022-08-22T05:53:02.458Z,15.57
2022-08-22T05:55:43.989Z,16.65
2022-08-22T05:58:30.198Z,18.63
2022-08-22T06:01:20.983Z,19.55
2022-08-22T06:04:12.335Z,21.90
2022-08-22T06:06:56.371Z,17.08
2022-08-22T06:09:46.901Z,16.05
2022-08-22T06:12:26.338Z,14.98
2022-08-22T06:15:11.877Z,17.08
2022-08-22T06:17:47.995Z,21.80
2022-08-22T06:20:23.698Z,15.88
2022-08-22T06:22:56.126Z,25.35
2022-08-22T06:25:35.244Z,19.83
2022-08-22T06:28:14.450Z,14.80
2022-08-22T06:30:45.734Z,16.63
2022-08-22T06:33:20.566Z,15.82
2022-08-22T06:36:09.673Z,15.40
2022-08-22T06:39:11.313Z,18.83
2022-08-22T06:42:01.217Z,17.98
2022-08-22T06:44:45.671Z,12.65
2022-08-22T06:47:26.039Z,15.32
2022-08-22T06:50:01.125Z,16.50
2022-08-22T06:52:32.667Z,23.10
2022-08-22T06:55:06.895Z,18.05
2022-08-22T06:58:03.580Z,18.27
2022-08-22T07:00:34.440Z,17.17
2022-08-22T07:03:12.688Z,15.63
2022-08-22T07:05:42.876Z,20.98
2022-08-22T07:08:14.831Z,22.05
2022-08-22T07:10:55.610Z,22.17
2022-08-22T07:13:26.318Z,18.33
2022-08-22T07:15:59.071Z,16.27
2022-08-22T07:18:29.559Z,20.35
2022-08-22T07:21:02.705Z,17.45
2022-08-22T07:23:38.211Z,11.20
2022-08-22T07:26:47.257Z,13.27
2022-08-22T07:29:50.266Z,17.23
2022-08-22T07:32:30.064Z,15.10
2022-08-22T07:35:19.303Z,12.98
2022-08-22T07:37:50.212Z,13.60
2022-08-22T07:40:32.707Z,16.20
2022-08-22T07:43:23.912Z,10.93
2022-08-22T07:46:26.587Z,13.07
2022-08-22T07:49:09.992Z,12.15
2022-08-22T07:51:47.035Z,10.18
2022-08-22T07:54:34.785Z,17.00
2022-08-22T07:57:08.363Z,10.88
2022-08-22T07:59:47.625Z,10.93
2022-08-22T08:02:18.713Z,15.32
2022-08-22T08:04:51.019Z,16.10
2022-08-22T08:07:23.657Z,13.02
2022-08-22T08:10:00.530Z,14.20
2022-08-22T08:12:44.241Z,15.73
2022-08-22T08:15:23.003Z,16.98
2022-08-22T08:17:57.611Z,11.38
2022-08-22T08:20:27.296Z,12.88
2022-08-22T08:22:57.553Z,8.70
2022-08-22T08:25:30.898Z,14.13
2022-08-22T08:28:18.527Z,11.90
2022-08-22T08:30:56.173Z,12.70
2022-08-22T08:33:28.126Z,11.15
2022-08-22T08:36:07.949Z,13.23
2022-08-22T08:38:49.463Z,13.18
2022-08-22T08:41:29.595Z,12.43
2022-08-22T08:44:08.206Z,14.68
2022-08-22T08:47:17.702Z,13.35
2022-08-22T08:49:55.345Z,11.70
2022-08-22T08:52:52.760Z,13.85
2022-08-22T08:55:38.625Z,11.73
2022-08-22T08:58:10.299Z,12.68
2022-08-22T09:01:12.591Z,13.45
2022-08-22T09:04:15.349Z,13.65
2022-08-22T09:07:02.652Z,11.88
2022-08-22T09:09:52.420Z,15.27
2022-08-22T09:13:11.513Z,14.52
2022-08-22T09:16:05.214Z,13.32
2022-08-22T09:19:14.730Z,9.82
2022-08-22T09:22:20.662Z,13.93
2022-08-22T09:25:05.964Z,10.98
2022-08-22T09:27:59.762Z,14.38
2022-08-22T09:31:21.919Z,13.68
2022-08-22T09:38:56.682Z,8.50
2022-08-22T09:41:51.768Z,12.20
2022-08-22T09:45:02.897Z,11.25
2022-08-22T09:47:33.708Z,13.75
2022-08-22T09:50:24.815Z,11.18
2022-08-22T09:53:09.512Z,12.07
2022-08-22T09:55:48.668Z,11.88
2022-08-22T09:58:47.877Z,13.60
2022-08-22T10:03:45.961Z,12.80
2022-08-22T10:06:27.036Z,9.80
2022-08-22T10:09:03.150Z,11.30
2022-08-22T10:11:58.384Z,8.25
2022-08-22T10:19:05.299Z,7.95
2022-08-22T10:24:43.575Z,8.02
2022-08-22T10:27:20.328Z,6.18
2022-08-22T10:30:16.377Z,6.35
2022-08-22T10:32:57.948Z,6.05
2022-08-22T10:35:44.526Z,6.60
2022-08-22T10:38:25.150Z,4.63
2022-08-22T10:40:58.474Z,7.20
2022-08-22T10:44:00.418Z,4.32
2022-08-22T10:46:46.207Z,4.57
2022-08-22T10:49:29.225Z,6.97
2022-08-22T10:52:15.309Z,5.45
2022-08-22T10:54:50.636Z,7.85
2022-08-22T10:57:33.453Z,6.47
2022-08-22T11:00:12.156Z,7.00
2022-08-22T11:02:57.536Z,11.48
2022-08-22T11:05:34.359Z,9.68
2022-08-22T11:08:35.729Z,7.97
2022-08-22T11:11:23.561Z,4.35
2022-08-22T11:14:21.531Z,5.03
2022-08-22T11:17:01.084Z,7.85
2022-08-22T11:20:08.946Z,4.32
2022-08-22T11:23:27.326Z,6.65
2022-08-22T11:26:33.730Z,9.07
2022-08-22T11:29:33.583Z,10.65
2022-08-22T11:32:16.982Z,7.53
2022-08-22T11:35:09.088Z,8.57
2022-08-22T11:38:03.177Z,7.38
2022-08-22T11:40:49.482Z,7.20
2022-08-22T11:43:47.523Z,8.48
2022-08-22T11:46:35.312Z,8.57
2022-08-22T11:49:06.373Z,6.60
2022-08-22T11:51:58.982Z,6.97
2022-08-22T11:54:31.498Z,10.30
2022-08-22T11:57:55.916Z,11.50
2022-08-22T12:03:40.087Z,6.35
2022-08-22T12:06:31.603Z,6.55
2022-08-22T12:09:08.772Z,11.45
2022-08-22T12:11:37.140Z,8.20
2022-08-22T12:14:18.876Z,12.60
2022-08-22T12:17:03.635Z,10.35
2022-08-22T12:20:14.656Z,9.15
2022-08-22T12:22:58.280Z,8.18
2022-08-22T12:25:46.964Z,10.40
2022-08-22T12:28:36.941Z,7.45
2022-08-22T12:31:20.647Z,8.13
2022-08-22T12:33:58.696Z,8.80
2022-08-22T12:36:49.150Z,11.80
2022-08-22T12:39:47.802Z,12.82
2022-08-22T12:42:39.507Z,9.57
2022-08-22T12:45:12.365Z,16.70
2022-08-22T12:48:25.684Z,14.48
2022-08-22T12:51:01.147Z,12.80
2022-08-22T12:53:56.984Z,9.30
2022-08-22T12:57:50.467Z,5.32
2022-08-22T13:00:35.431Z,6.65
2022-08-22T13:03:27.594Z,11.70
2022-08-22T13:06:15.141Z,6.18
2022-08-22T13:08:45.923Z,4.97
2022-08-22T13:11:23.364Z,5.35
2022-08-22T13:13:56.511Z,3.80
2022-08-22T13:16:34.583Z,4.95
2022-08-22T13:19:13.645Z,4.38
2022-08-22T13:22:04.308Z,6.57
2022-08-22T13:25:08.588Z,5.50
2022-08-22T13:27:51.600Z,4.93
2022-08-22T13:30:37.621Z,4.53
2022-08-22T13:33:33.703Z,5.70
2022-08-22T13:36:07.870Z,6.35
2022-08-22T13:39:08.528Z,6.70
2022-08-22T13:41:48.331Z,4.10
2022-08-22T13:44:26.545Z,5.75
2022-08-22T13:47:13.910Z,5.80
2022-08-22T13:50:04.467Z,7.93
2022-08-22T13:52:38.084Z,7.93
2022-08-22T13:55:20.004Z,10.25
2022-08-22T13:57:52.856Z,5.40
2022-08-22T14:00:28.485Z,14.82
2022-08-22T14:03:05.703Z,8.30
2022-08-22T14:05:48.139Z,8.52
2022-08-22T14:08:28.784Z,6.10
2022-08-22T14:11:21.999Z,10.57
2022-08-22T14:14:03.778Z,6.15
2022-08-22T14:16:45.354Z,7.15
2022-08-22T14:19:24.304Z,7.28
2022-08-22T14:22:08.883Z,6.72
2022-08-22T14:24:55.949Z,8.68
2022-08-22T14:27:58.089Z,12.20
2022-08-22T14:30:31.250Z,9.75
2022-08-22T14:33:22.346Z,12.50
2022-08-22T14:35:53.391Z,10.77
2022-08-22T14:38:30.065Z,11.07
2022-08-22T14:41:52.827Z,6.72
2022-08-22T14:44:38.799Z,9.02
2022-08-22T14:47:51.051Z,8.07
2022-08-22T14:50:29.871Z,12.88
2022-08-22T14:53:29.590Z,9.85
2022-08-22T14:56:27.869Z,8.23
2022-08-22T14:59:01.392Z,9.68
2022-08-22T15:01:32.902Z,8.38
2022-08-22T15:04:19.277Z,9.07
2022-08-22T15:06:57.877Z,10.32
2022-08-22T15:09:43.130Z,11.13
2022-08-22T15:12:37.715Z,7.47
2022-08-22T15:15:52.796Z,7.78
2022-08-22T15:18:28.915Z,9.63
2022-08-22T15:21:12.367Z,11.88
2022-08-22T15:23:46.926Z,8.63
2022-08-22T15:26:30.803Z,9.35
2022-08-22T15:29:07.345Z,7.32
2022-08-22T15:31:36.454Z,7.72
2022-08-22T15:34:32.777Z,13.50
2022-08-22T15:37:18.950Z,8.07
2022-08-22T15:40:05.885Z,6.50
2022-08-22T15:42:48.830Z,7.38
2022-08-22T15:45:34.029Z,7.28
2022-08-22T15:48:31.019Z,6.53
2022-08-22T15:51:15.724Z,4.90
2022-08-22T15:53:43.510Z,5.75
2022-08-22T15:56:15.448Z,6.85
2022-08-22T15:58:49.892Z,7.65
2022-08-22T16:01:24.211Z,4.15
2022-08-22T16:04:00.572Z,5.43
2022-08-22T16:06:52.943Z,6.18
2022-08-22T16:09:43.540Z,7.75
2022-08-22T16:12:32.738Z,8.18
2022-08-22T16:15:02.208Z,7.80
2022-08-22T16:17:36.886Z,8.20
2022-08-22T16:20:19.639Z,6.10
2022-08-22T16:22:56.966Z,6.78
2022-08-22T16:28:56.939Z,5.40
2022-08-22T16:31:29.026Z,3.20
2022-08-22T16:34:17.282Z,2.20
2022-08-22T16:37:08.528Z,2.67
2022-08-22T16:39:48.479Z,4.07
2022-08-22T16:42:18.242Z,4.38
2022-08-22T16:45:05.467Z,9.90
2022-08-22T16:47:33.275Z,6.15
2022-08-22T16:50:01.048Z,5.35
2022-08-22T16:52:28.927Z,4.63
2022-08-22T16:55:02.116Z,3.85
2022-08-22T16:57:32.669Z,5.85
2022-08-22T17:00:22.962Z,5.13
2022-08-22T17:02:59.917Z,6.03
2022-08-22T17:05:30.472Z,7.85
2022-08-22T17:08:22.895Z,4.15
2022-08-22T17:10:59.704Z,6.53
2022-08-22T17:13:39.263Z,6.93
2022-08-22T17:16:27.938Z,4.55
2022-08-22T17:19:03.308Z,7.15
2022-08-22T17:21:51.715Z,7.32
2022-08-22T17:24:32.226Z,10.38
2022-08-22T17:27:30.364Z,8.88
2022-08-22T17:30:07.388Z,7.80
2022-08-22T17:33:03.382Z,6.83
2022-08-22T17:35:45.625Z,6.60
2022-08-22T17:38:49.127Z,6.05
2022-08-22T17:41:44.444Z,5.45
2022-08-22T17:45:09.556Z,7.82
2022-08-22T17:48:00.710Z,9.70
2022-08-22T17:50:44.588Z,7.70
2022-08-22T17:53:16.357Z,9.43
2022-08-22T17:56:09.232Z,8.10
2022-08-22T17:58:45.405Z,7.53
2022-08-22T18:01:21.595Z,7.22
2022-08-22T18:04:00.135Z,10.05
2022-08-22T18:06:35.610Z,8.10
2022-08-22T18:09:16.617Z,10.35
2022-08-22T18:12:03.128Z,7.78
2022-08-22T18:14:39.936Z,7.15
2022-08-22T18:17:25.823Z,8.10
2022-08-22T18:20:27.925Z,4.95
2022-08-22T18:23:02.084Z,7.07
2022-08-22T18:25:38.549Z,7.50
2022-08-22T18:28:21.766Z,7.30
2022-08-22T18:31:06.911Z,3.83
2022-08-22T18:33:45.502Z,5.82
2022-08-22T18:36:33.363Z,5.90
2022-08-22T18:39:23.379Z,4.28
2022-08-22T18:42:00.218Z,4.80
2022-08-22T18:44:34.347Z,5.47
2022-08-22T18:47:13.010Z,4.20
2022-08-22T18:49:45.597Z,5.13
2022-08-22T18:52:19.748Z,5.10
2022-08-22T18:55:05.769Z,5.03
2022-08-22T18:57:59.268Z,4.75
2022-08-22T19:00:57.820Z,6.32
2022-08-22T19:03:31.375Z,6.70
2022-08-22T19:06:15.299Z,11.73
2022-08-22T19:09:20.298Z,6.90
2022-08-22T19:12:35.688Z,5.10
2022-08-22T19:15:14.686Z,6.10
2022-08-22T19:18:18.957Z,7.05
2022-08-22T19:21:37.729Z,4.85
2022-08-22T19:24:30.253Z,6.40
2022-08-22T19:27:07.248Z,7.57
2022-08-22T19:29:34.892Z,3.40
2022-08-22T19:32:11.874Z,2.85
2022-08-22T19:34:47.213Z,3.50
2022-08-22T19:37:32.496Z,3.35
2022-08-22T19:40:08.671Z,3.75
2022-08-22T19:42:38.971Z,2.40
2022-08-22T19:45:25.633Z,3.30
2022-08-22T19:48:10.521Z,4.70
2022-08-22T19:50:39.423Z,1.80
2022-08-22T19:53:17.708Z,3.40
2022-08-22T19:56:00.263Z,3.97
2022-08-22T19:58:52.322Z,3.10
2022-08-22T20:01:48.739Z,3.60
2022-08-22T20:04:36.332Z,5.18
2022-08-22T20:07:25.735Z,1.80
2022-08-22T20:10:07.638Z,2.97
2022-08-22T20:13:07.698Z,4.07
2022-08-22T20:16:04.452Z,4.13
2022-08-22T20:19:06.608Z,6.07
2022-08-22T20:21:52.775Z,6.35
2022-08-22T20:24:39.825Z,6.05
2022-08-22T20:27:32.842Z,4.57
2022-08-22T20:30:02.635Z,4.65
2022-08-22T20:32:37.627Z,4.97
2022-08-22T20:35:05.965Z,4.80
2022-08-22T20:38:05.322Z,5.65
2022-08-22T20:40:55.065Z,6.13
2022-08-22T20:43:28.244Z,5.72
2022-08-22T20:46:22.161Z,5.35
2022-08-22T20:48:54.587Z,6.38
2022-08-22T20:51:29.298Z,7.68
2022-08-22T20:54:10.446Z,6.60
2022-08-22T20:56:53.249Z,7.18
2022-08-22T20:59:27.455Z,6.75
2022-08-22T21:02:19.054Z,7.45
2022-08-22T21:04:52.751Z,5.78
2022-08-22T21:07:31.430Z,7.75
2022-08-22T21:10:37.335Z,7.30
2022-08-22T21:13:20.534Z,6.65
2022-08-22T21:15:58.600Z,7.07
2022-08-22T21:18:41.641Z,4.85
2022-08-22T21:21:18.172Z,7.38
2022-08-22T21:24:00.390Z,8.00
2022-08-22T21:26:32.611Z,7.03
2022-08-22T21:29:05.545Z,4.70
2022-08-22T21:31:36.797Z,6.55
2022-08-22T21:34:05.754Z,5.38
2022-08-22T21:36:38.268Z,4.07
2022-08-22T21:39:17.443Z,4.85
2022-08-22T21:41:52.343Z,3.88
2022-08-22T21:44:41.532Z,4.65
2022-08-22T21:47:35.287Z,4.03
2022-08-22T21:50:02.840Z,3.63
2022-08-22T21:52:44.054Z,2.97
2022-08-22T21:55:35.603Z,4.72
2022-08-22T21:58:12.595Z,5.85
2022-08-22T22:00:59.140Z,4.40
2022-08-22T22:03:38.134Z,2.70
2022-08-22T22:06:06.655Z,5.38
2022-08-22T22:08:34.330Z,5.50
2022-08-22T22:11:08.335Z,3.38
2022-08-22T22:13:36.425Z,2.67
2022-08-22T22:16:06.811Z,6.05
2022-08-22T22:18:35.831Z,4.68
2022-08-22T22:21:04.517Z,3.30
2022-08-22T22:23:32.563Z,2.55
2022-08-22T22:26:02.587Z,3.60
2022-08-22T22:28:37.068Z,3.97
2022-08-22T22:31:05.659Z,3.28
2022-08-22T22:33:36.782Z,3.22
2022-08-22T22:36:10.842Z,3.38
2022-08-22T22:38:39.999Z,3.40
2022-08-22T22:41:07.657Z,4.15
2022-08-22T22:43:35.310Z,4.20
2022-08-22T22:46:03.066Z,4.47
2022-08-22T22:48:31.455Z,3.80
2022-08-22T22:50:59.274Z,3.83
2022-08-22T22:53:38.621Z,3.35
2022-08-22T22:56:11.623Z,3.20
2022-08-22T22:58:40.442Z,2.50
2022-08-22T23:01:15.212Z,4.00
2022-08-22T23:03:44.274Z,4.80
2022-08-22T23:06:18.272Z,5.32
2022-08-22T23:08:47.313Z,5.57
2022-08-22T23:11:18.065Z,5.20
2022-08-22T23:13:45.884Z,5.38
2022-08-22T23:16:16.742Z,5.13
2022-08-22T23:18:44.906Z,3.05
2022-08-22T23:23:41.696Z,2.65
2022-08-22T23:26:10.030Z,5.72
2022-08-22T23:28:37.678Z,2.22
2022-08-22T23:31:27.046Z,2.50
2022-08-22T23:33:55.473Z,2.95
2022-08-22T23:36:23.948Z,3.97
2022-08-22T23:38:52.268Z,3.92
2022-08-22T23:41:21.629Z,3.20
2022-08-22T23:43:51.806Z,3.42
2022-08-22T23:46:21.092Z,1.90
2022-08-22T23:48:49.003Z,2.95
2022-08-22T23:51:22.909Z,4.63
2022-08-22T23:53:52.774Z,2.55
2022-08-22T23:56:26.919Z,3.65
2022-08-22T23:58:54.986Z,2.65
